Impacts TAF Board
For situational awareness. Not to be used for flight planning purposes.
IDs:

KIAH - Houston/Bush Intl, TX, US

Issued at 1732 UTC 06 Jul 2020
Updated at 1745 UTC 06 Jul 2020
Potential Impact None Slight Moderate High
Time1653Z 06/18Z 06/19Z 06/20Z 06/21Z 06/22Z 06/23Z 07/00Z 07/01Z 07/02Z 07/03Z 07/04Z 07/05Z 07/06Z>>
Type OBS PRVL PRVL PRVL PRVL PRVL PRVL PRVL PRVL PRVL PRVL PRVL PRVL PRVL
VIS 10 >6 >6 >6 >6 >6 >6 >6 >6 >6 >6 >6 >6 >6
CIG 150 150 150 150 150 150 150 100 100 100 100 100 100 100
Cover OVC BKN BKN BKN BKN BKN BKN BKN BKN BKN BKN BKN BKN BKN
FltCat VFR VFR VFR VFR VFR VFR VFR VFR VFR VFR VFR VFR VFR VFR
WX -- -- -- -- -- VCTS VCTS -- -- -- -- -- -- --
WDir 210 210 210 210 210 190 190 VRB VRB VRB VRB VRB VRB VRB
WSpd 9 9 9 9 9 7 7 3 3 3 3 3 3 3
WGst -- -- -- -- -- -- -- -- -- -- -- -- -- --
R08/26
XWnd -8 -8 -8 -8 -8 -7 -7 VRB VRB VRB VRB VRB VRB VRB
HWnd -5 -5 -5 -5 -5 -1 -1 VRB VRB VRB VRB VRB VRB VRB
R09/27
XWnd -8 -8 -8 -8 -8 -7 -7 VRB VRB VRB VRB VRB VRB VRB
HWnd -5 -5 -5 -5 -5 -1 -1 VRB VRB VRB VRB VRB VRB VRB
R15/33
XWnd -8 -8 -8 -8 -8 -4 -4 VRB VRB VRB VRB VRB VRB VRB
HWnd 5 5 5 5 5 6 6 VRB VRB VRB VRB VRB VRB VRB
Raw TAF
KIAH 061732Z 0618/0724 21009KT P6SM SCT035 BKN150
  FM062200 19007KT P6SM VCTS SCT035CB BKN150
  FM070000 VRB03KT P6SM SCT025 BKN100
  FM071100 18006KT P6SM BKN020
  FM071600 VRB03KT P6SM VCTS BKN035CB


Raw METAR
KIAH 061653Z 21009KT 10SM FEW029 BKN150 OVC250 31/24 A2994 RMK AO2 SLP136 T03110239
KIAH 061553Z 23009KT 10SM FEW025 SCT043 BKN150 BKN250 31/24 A2994 RMK AO2 SLP138 T03060239
KIAH 061453Z 24009KT 10SM FEW021 SCT028 SCT040 BKN130 BKN250 31/24 A2993 RMK AO2 SLP134 T03060239 51012

METAR Board
Radar Display
Forecast Discussion
For situational awareness. Not to be used for flight planning purposes.